sensor_id;sensor_type;location;lat;lon;timestamp;pressure;altitude;pressure_sealevel;temperature;humidity
75036;BME280;64247;51.540;5.854;2022-12-29T00:01:38;99838.34;;;9.50;100.00
75036;BME280;64247;51.540;5.854;2022-12-29T00:03:39;99827.88;;;9.49;100.00
75036;BME280;64247;51.540;5.854;2022-12-29T00:05:40;99818.88;;;9.45;100.00
75036;BME280;64247;51.540;5.854;2022-12-29T00:07:40;99820.41;;;9.42;100.00
75036;BME280;64247;51.540;5.854;2022-12-29T00:09:41;99813.78;;;9.40;100.00
75036;BME280;64247;51.540;5.854;2022-12-29T00:11:42;99801.72;;;9.37;100.00
75036;BME280;64247;51.540;5.854;2022-12-29T00:13:44;99812.91;;;9.35;100.00
75036;BME280;64247;51.540;5.854;2022-12-29T00:16:07;99800.53;;;9.34;100.00
75036;BME280;64247;51.540;5.854;2022-12-29T00:18:08;99800.53;;;9.34;100.00
75036;BME280;64247;51.540;5.854;2022-12-29T00:20:09;99792.03;;;9.36;100.00
75036;BME280;64247;51.540;5.854;2022-12-29T00:22:28;99793.25;;;9.39;100.00
75036;BME280;64247;51.540;5.854;2022-12-29T00:24:47;99782.84;;;9.41;100.00
75036;BME280;64247;51.540;5.854;2022-12-29T00:27:28;99779.75;;;9.42;100.00
75036;BME280;64247;51.540;5.854;2022-12-29T00:29:49;99788.38;;;9.48;100.00
75036;BME280;64247;51.540;5.854;2022-12-29T00:32:09;99788.81;;;9.50;100.00
75036;BME280;64247;51.540;5.854;2022-12-29T00:34:29;99773.69;;;9.49;100.00
75036;BME280;64247;51.540;5.854;2022-12-29T00:36:48;99773.34;;;9.50;100.00
75036;BME280;64247;51.540;5.854;2022-12-29T00:38:53;99765.56;;;9.49;100.00
75036;BME280;64247;51.540;5.854;2022-12-29T00:41:16;99752.03;;;9.49;100.00
75036;BME280;64247;51.540;5.854;2022-12-29T00:43:36;99759.34;;;9.48;100.00
75036;BME280;64247;51.540;5.854;2022-12-29T00:45:55;99768.28;;;9.49;100.00
75036;BME280;64247;51.540;5.854;2022-12-29T00:47:56;99759.34;;;9.48;100.00
75036;BME280;64247;51.540;5.854;2022-12-29T00:49:57;99761.72;;;9.50;100.00
75036;BME280;64247;51.540;5.854;2022-12-29T00:52:03;99752.81;;;9.49;100.00
75036;BME280;64247;51.540;5.854;2022-12-29T00:54:06;99750.91;;;9.50;100.00
75036;BME280;64247;51.540;5.854;2022-12-29T00:56:07;99746.25;;;9.50;100.00
75036;BME280;64247;51.540;5.854;2022-12-29T00:58:08;99741.59;;;9.51;100.00
75036;BME280;64247;51.540;5.854;2022-12-29T01:00:09;99741.25;;;9.53;100.00
75036;BME280;64247;51.540;5.854;2022-12-29T01:02:11;99740.88;;;9.54;100.00
75036;BME280;64247;51.540;5.854;2022-12-29T01:04:12;99742.81;;;9.54;100.00
75036;BME280;64247;51.540;5.854;2022-12-29T01:06:14;99729.34;;;9.57;100.00
75036;BME280;64247;51.540;5.854;2022-12-29T01:08:15;99739.00;;;9.58;100.00
75036;BME280;64247;51.540;5.854;2022-12-29T01:10:16;99737.81;;;9.56;100.00
75036;BME280;64247;51.540;5.854;2022-12-29T01:12:17;99738.56;;;9.53;100.00
75036;BME280;64247;51.540;5.854;2022-12-29T01:14:39;99746.69;;;9.53;100.00
75036;BME280;64247;51.540;5.854;2022-12-29T01:16:40;99735.84;;;9.53;100.00
75036;BME280;64247;51.540;5.854;2022-12-29T01:18:40;99744.38;;;9.55;100.00
75036;BME280;64247;51.540;5.854;2022-12-29T01:20:41;99738.19;;;9.54;100.00
75036;BME280;64247;51.540;5.854;2022-12-29T01:22:42;99735.09;;;9.56;100.00
75036;BME280;64247;51.540;5.854;2022-12-29T01:24:44;99718.91;;;9.59;100.00
75036;BME280;64247;51.540;5.854;2022-12-29T01:26:47;99728.22;;;9.62;100.00
75036;BME280;64247;51.540;5.854;2022-12-29T01:28:50;99724.81;;;9.65;100.00
75036;BME280;64247;51.540;5.854;2022-12-29T01:30:51;99729.16;;;9.70;100.00
75036;BME280;64247;51.540;5.854;2022-12-29T01:32:52;99717.66;;;9.76;100.00
75036;BME280;64247;51.540;5.854;2022-12-29T01:34:53;99738.22;;;9.81;100.00
75036;BME280;64247;51.540;5.854;2022-12-29T01:36:54;99726.28;;;9.86;100.00
75036;BME280;64247;51.540;5.854;2022-12-29T01:38:55;99717.44;;;9.89;100.00
75036;BME280;64247;51.540;5.854;2022-12-29T01:40:57;99722.22;;;9.95;100.00
75036;BME280;64247;51.540;5.854;2022-12-29T01:42:57;99707.97;;;10.02;100.00
75036;BME280;64247;51.540;5.854;2022-12-29T01:45:13;99708.44;;;10.08;100.00
75036;BME280;64247;51.540;5.854;2022-12-29T01:47:21;99710.47;;;10.14;100.00
75036;BME280;64247;51.540;5.854;2022-12-29T01:49:30;99717.09;;;10.17;100.00
75036;BME280;64247;51.540;5.854;2022-12-29T01:51:34;99725.28;;;10.21;100.00
75036;BME280;64247;51.540;5.854;2022-12-29T01:53:39;99705.56;;;10.24;100.00
75036;BME280;64247;51.540;5.854;2022-12-29T01:55:44;99711.41;;;10.26;100.00
75036;BME280;64247;51.540;5.854;2022-12-29T01:58:04;99691.69;;;10.29;98.93
75036;BME280;64247;51.540;5.854;2022-12-29T02:00:10;99705.31;;;10.33;98.89
75036;BME280;64247;51.540;5.854;2022-12-29T02:02:15;99708.41;;;10.35;99.10
75036;BME280;64247;51.540;5.854;2022-12-29T02:04:17;99706.16;;;10.37;98.55
75036;BME280;64247;51.540;5.854;2022-12-29T02:06:23;99689.56;;;10.42;97.38
75036;BME280;64247;51.540;5.854;2022-12-29T02:08:30;99700.81;;;10.44;97.41
75036;BME280;64247;51.540;5.854;2022-12-29T02:10:34;99693.09;;;10.46;97.33
75036;BME280;64247;51.540;5.854;2022-12-29T02:12:36;99709.00;;;10.48;97.10
75036;BME280;64247;51.540;5.854;2022-12-29T02:14:37;99710.16;;;10.47;97.25
75036;BME280;64247;51.540;5.854;2022-12-29T02:20:27;99716.47;;;10.54;96.20
75036;BME280;64247;51.540;5.854;2022-12-29T02:23:07;99718.03;;;10.55;95.90
75036;BME280;64247;51.540;5.854;2022-12-29T02:32:05;99711.53;;;10.64;94.49
75036;BME280;64247;51.540;5.854;2022-12-29T02:34:35;99718.13;;;10.63;94.88
75036;BME280;64247;51.540;5.854;2022-12-29T02:37:06;99708.00;;;10.59;95.01
75036;BME280;64247;51.540;5.854;2022-12-29T02:51:54;99707.44;;;10.20;97.52
75036;BME280;64247;51.540;5.854;2022-12-29T02:55:02;99684.59;;;10.21;97.32
75036;BME280;64247;51.540;5.854;2022-12-29T02:59:33;99671.31;;;10.39;96.17
75036;BME280;64247;51.540;5.854;2022-12-29T03:07:34;99689.97;;;10.44;96.78
75036;BME280;64247;51.540;5.854;2022-12-29T03:13:17;99685.94;;;10.34;97.45
75036;BME280;64247;51.540;5.854;2022-12-29T03:16:29;99658.78;;;10.30;97.66
75036;BME280;64247;51.540;5.854;2022-12-29T03:22:21;99669.56;;;10.27;98.24
75036;BME280;64247;51.540;5.854;2022-12-29T03:24:44;99671.84;;;10.25;97.99
75036;BME280;64247;51.540;5.854;2022-12-29T03:26:55;99678.81;;;10.22;98.14
75036;BME280;64247;51.540;5.854;2022-12-29T03:29:01;99672.47;;;10.11;99.11
75036;BME280;64247;51.540;5.854;2022-12-29T03:31:04;99670.22;;;9.90;100.00
75036;BME280;64247;51.540;5.854;2022-12-29T03:33:11;99667.97;;;9.69;100.00
75036;BME280;64247;51.540;5.854;2022-12-29T03:35:17;99660.75;;;9.53;100.00
75036;BME280;64247;51.540;5.854;2022-12-29T03:37:23;99665.22;;;9.42;100.00
75036;BME280;64247;51.540;5.854;2022-12-29T03:39:29;99649.56;;;9.31;100.00
75036;BME280;64247;51.540;5.854;2022-12-29T03:41:31;99651.38;;;9.24;100.00
75036;BME280;64247;51.540;5.854;2022-12-29T03:43:37;99653.94;;;9.16;100.00
75036;BME280;64247;51.540;5.854;2022-12-29T03:45:38;99657.41;;;9.13;100.00
75036;BME280;64247;51.540;5.854;2022-12-29T03:47:40;99648.06;;;9.11;100.00
75036;BME280;64247;51.540;5.854;2022-12-29T03:49:41;99652.63;;;9.07;100.00
75036;BME280;64247;51.540;5.854;2022-12-29T03:51:42;99652.56;;;9.03;100.00
75036;BME280;64247;51.540;5.854;2022-12-29T03:53:43;99661.41;;;9.00;100.00
75036;BME280;64247;51.540;5.854;2022-12-29T03:55:45;99652.06;;;8.97;100.00
75036;BME280;64247;51.540;5.854;2022-12-29T03:57:46;99658.66;;;8.96;100.00
75036;BME280;64247;51.540;5.854;2022-12-29T03:59:51;99665.97;;;8.96;100.00
75036;BME280;64247;51.540;5.854;2022-12-29T04:01:52;99668.38;;;9.01;100.00
75036;BME280;64247;51.540;5.854;2022-12-29T04:03:53;99666.91;;;9.03;100.00
75036;BME280;64247;51.540;5.854;2022-12-29T04:05:54;99664.91;;;9.00;100.00
75036;BME280;64247;51.540;5.854;2022-12-29T04:07:55;99668.31;;;8.97;100.00
75036;BME280;64247;51.540;5.854;2022-12-29T04:09:57;99656.66;;;8.93;100.00
75036;BME280;64247;51.540;5.854;2022-12-29T04:12:00;99672.19;;;8.96;100.00
75036;BME280;64247;51.540;5.854;2022-12-29T04:14:02;99686.84;;;8.95;100.00
75036;BME280;64247;51.540;5.854;2022-12-29T04:16:05;99683.72;;;8.93;100.00
75036;BME280;64247;51.540;5.854;2022-12-29T04:18:06;99679.19;;;9.01;100.00
75036;BME280;64247;51.540;5.854;2022-12-29T04:20:08;99684.75;;;9.08;100.00
75036;BME280;64247;51.540;5.854;2022-12-29T04:22:29;99701.00;;;9.08;100.00
75036;BME280;64247;51.540;5.854;2022-12-29T04:24:30;99700.44;;;8.99;100.00
75036;BME280;64247;51.540;5.854;2022-12-29T04:26:31;99689.06;;;8.90;100.00
75036;BME280;64247;51.540;5.854;2022-12-29T04:28:58;99686.84;;;8.76;100.00
75036;BME280;64247;51.540;5.854;2022-12-29T04:31:08;99690.56;;;8.67;100.00
75036;BME280;64247;51.540;5.854;2022-12-29T04:33:12;99684.22;;;8.60;100.00
75036;BME280;64247;51.540;5.854;2022-12-29T04:35:14;99693.34;;;8.51;100.00
75036;BME280;64247;51.540;5.854;2022-12-29T04:37:15;99707.44;;;8.45;100.00
75036;BME280;64247;51.540;5.854;2022-12-29T04:39:16;99699.25;;;8.41;100.00
75036;BME280;64247;51.540;5.854;2022-12-29T04:41:17;99693.53;;;8.43;100.00
75036;BME280;64247;51.540;5.854;2022-12-29T04:43:18;99687.38;;;8.46;100.00
75036;BME280;64247;51.540;5.854;2022-12-29T04:45:42;99696.41;;;8.50;100.00
75036;BME280;64247;51.540;5.854;2022-12-29T04:47:57;99691.00;;;8.50;100.00
75036;BME280;64247;51.540;5.854;2022-12-29T04:50:16;99673.59;;;8.51;100.00
75036;BME280;64247;51.540;5.854;2022-12-29T04:52:24;99664.09;;;8.57;100.00
75036;BME280;64247;51.540;5.854;2022-12-29T04:54:26;99691.34;;;8.68;100.00
75036;BME280;64247;51.540;5.854;2022-12-29T04:56:40;99697.66;;;8.76;99.88
75036;BME280;64247;51.540;5.854;2022-12-29T04:58:41;99689.63;;;8.79;98.66
75036;BME280;64247;51.540;5.854;2022-12-29T05:00:42;99687.28;;;8.78;97.94
75036;BME280;64247;51.540;5.854;2022-12-29T05:02:44;99653.00;;;8.85;97.62
75036;BME280;64247;51.540;5.854;2022-12-29T05:04:46;99692.53;;;8.90;97.06
75036;BME280;64247;51.540;5.854;2022-12-29T05:06:47;99702.28;;;8.95;96.92
75036;BME280;64247;51.540;5.854;2022-12-29T05:08:48;99707.56;;;8.87;97.72
75036;BME280;64247;51.540;5.854;2022-12-29T05:10:52;99680.88;;;8.86;97.46
75036;BME280;64247;51.540;5.854;2022-12-29T05:12:54;99684.72;;;8.85;97.75
75036;BME280;64247;51.540;5.854;2022-12-29T05:14:55;99726.00;;;8.82;97.89
75036;BME280;64247;51.540;5.854;2022-12-29T05:16:56;99729.00;;;8.77;98.22
75036;BME280;64247;51.540;5.854;2022-12-29T05:18:57;99719.25;;;8.72;98.47
75036;BME280;64247;51.540;5.854;2022-12-29T05:20:58;99728.16;;;8.73;98.78
75036;BME280;64247;51.540;5.854;2022-12-29T05:22:59;99722.31;;;8.70;99.21
75036;BME280;64247;51.540;5.854;2022-12-29T05:25:00;99740.03;;;8.68;99.95
75036;BME280;64247;51.540;5.854;2022-12-29T05:27:01;99735.03;;;8.70;100.00
75036;BME280;64247;51.540;5.854;2022-12-29T05:29:18;99749.00;;;8.72;100.00
75036;BME280;64247;51.540;5.854;2022-12-29T05:31:19;99738.13;;;8.68;100.00
75036;BME280;64247;51.540;5.854;2022-12-29T05:33:21;99758.63;;;8.69;100.00
75036;BME280;64247;51.540;5.854;2022-12-29T05:35:24;99748.56;;;8.70;100.00
75036;BME280;64247;51.540;5.854;2022-12-29T05:37:25;99742.09;;;8.75;100.00
75036;BME280;64247;51.540;5.854;2022-12-29T05:39:26;99770.72;;;8.76;100.00
75036;BME280;64247;51.540;5.854;2022-12-29T05:41:30;99754.84;;;8.74;100.00
75036;BME280;64247;51.540;5.854;2022-12-29T05:43:54;99768.75;;;8.73;100.00
75036;BME280;64247;51.540;5.854;2022-12-29T05:46:14;99769.66;;;8.80;100.00
75036;BME280;64247;51.540;5.854;2022-12-29T05:48:31;99777.50;;;8.85;99.87
75036;BME280;64247;51.540;5.854;2022-12-29T05:50:51;99774.53;;;8.91;98.56
75036;BME280;64247;51.540;5.854;2022-12-29T05:52:58;99768.69;;;8.89;97.88
75036;BME280;64247;51.540;5.854;2022-12-29T05:54:59;99777.00;;;8.99;96.66
75036;BME280;64247;51.540;5.854;2022-12-29T05:57:01;99771.97;;;8.98;96.93
75036;BME280;64247;51.540;5.854;2022-12-29T05:59:03;99788.63;;;9.00;96.83
75036;BME280;64247;51.540;5.854;2022-12-29T06:01:04;99797.09;;;8.98;96.93
75036;BME280;64247;51.540;5.854;2022-12-29T06:03:05;99791.59;;;8.95;97.12
75036;BME280;64247;51.540;5.854;2022-12-29T06:05:06;99792.03;;;8.97;97.39
75036;BME280;64247;51.540;5.854;2022-12-29T06:07:09;99786.56;;;8.93;97.46
75036;BME280;64247;51.540;5.854;2022-12-29T06:09:19;99785.50;;;8.98;97.36
75036;BME280;64247;51.540;5.854;2022-12-29T06:11:20;99797.16;;;9.02;96.95
75036;BME280;64247;51.540;5.854;2022-12-29T06:13:28;99802.94;;;9.00;96.98
75036;BME280;64247;51.540;5.854;2022-12-29T06:15:32;99775.25;;;9.07;96.70
75036;BME280;64247;51.540;5.854;2022-12-29T06:17:33;99806.31;;;9.13;96.46
75036;BME280;64247;51.540;5.854;2022-12-29T06:19:35;99790.50;;;9.15;96.72
75036;BME280;64247;51.540;5.854;2022-12-29T06:21:36;99799.81;;;9.18;96.62
75036;BME280;64247;51.540;5.854;2022-12-29T06:23:38;99790.06;;;9.13;96.19
75036;BME280;64247;51.540;5.854;2022-12-29T06:25:39;99799.31;;;9.12;95.54
75036;BME280;64247;51.540;5.854;2022-12-29T06:27:41;99789.31;;;9.16;95.39
75036;BME280;64247;51.540;5.854;2022-12-29T06:29:42;99794.03;;;9.19;94.75
75036;BME280;64247;51.540;5.854;2022-12-29T06:31:44;99794.88;;;9.24;93.27
75036;BME280;64247;51.540;5.854;2022-12-29T06:33:49;99797.31;;;9.29;92.07
75036;BME280;64247;51.540;5.854;2022-12-29T06:35:49;99762.69;;;9.38;91.00
75036;BME280;64247;51.540;5.854;2022-12-29T06:37:51;99785.19;;;9.42;90.13
75036;BME280;64247;51.540;5.854;2022-12-29T06:39:52;99795.66;;;9.44;89.80
75036;BME280;64247;51.540;5.854;2022-12-29T06:41:53;99795.31;;;9.45;89.66
75036;BME280;64247;51.540;5.854;2022-12-29T06:44:18;99776.75;;;9.47;89.93
75036;BME280;64247;51.540;5.854;2022-12-29T06:46:34;99758.59;;;9.48;89.34
75036;BME280;64247;51.540;5.854;2022-12-29T06:48:35;99764.13;;;9.55;87.86
75036;BME280;64247;51.540;5.854;2022-12-29T06:50:36;99775.16;;;9.66;88.28
75036;BME280;64247;51.540;5.854;2022-12-29T06:52:37;99761.97;;;9.64;87.97
75036;BME280;64247;51.540;5.854;2022-12-29T06:54:38;99779.31;;;9.60;87.52
75036;BME280;64247;51.540;5.854;2022-12-29T06:56:39;99785.44;;;9.57;88.51
75036;BME280;64247;51.540;5.854;2022-12-29T06:58:40;99784.59;;;9.53;88.59
75036;BME280;64247;51.540;5.854;2022-12-29T07:00:41;99790.44;;;9.55;88.70
75036;BME280;64247;51.540;5.854;2022-12-29T07:02:42;99788.09;;;9.53;90.00
75036;BME280;64247;51.540;5.854;2022-12-29T07:04:43;99786.50;;;9.52;89.51
75036;BME280;64247;51.540;5.854;2022-12-29T07:06:44;99791.88;;;9.48;90.15
75036;BME280;64247;51.540;5.854;2022-12-29T07:08:44;99787.53;;;9.44;90.20
75036;BME280;64247;51.540;5.854;2022-12-29T07:10:46;99793.31;;;9.42;89.59
75036;BME280;64247;51.540;5.854;2022-12-29T07:12:47;99789.59;;;9.50;89.79
75036;BME280;64247;51.540;5.854;2022-12-29T07:14:48;99775.28;;;9.50;88.41
75036;BME280;64247;51.540;5.854;2022-12-29T07:16:49;99768.63;;;9.47;88.17
75036;BME280;64247;51.540;5.854;2022-12-29T07:18:49;99782.91;;;9.44;88.07
75036;BME280;64247;51.540;5.854;2022-12-29T07:20:51;99776.69;;;9.44;87.10
75036;BME280;64247;51.540;5.854;2022-12-29T07:22:53;99791.44;;;9.46;87.79
75036;BME280;64247;51.540;5.854;2022-12-29T07:24:54;99811.91;;;9.44;87.38
75036;BME280;64247;51.540;5.854;2022-12-29T07:26:55;99792.31;;;9.50;87.19
75036;BME280;64247;51.540;5.854;2022-12-29T07:28:56;99799.28;;;9.52;86.04
75036;BME280;64247;51.540;5.854;2022-12-29T07:30:56;99805.47;;;9.52;85.13
75036;BME280;64247;51.540;5.854;2022-12-29T07:32:57;99811.25;;;9.50;85.16
75036;BME280;64247;51.540;5.854;2022-12-29T07:34:58;99839.94;;;9.52;84.00
75036;BME280;64247;51.540;5.854;2022-12-29T07:36:59;99821.41;;;9.54;83.81
75036;BME280;64247;51.540;5.854;2022-12-29T07:39:00;99841.63;;;9.60;83.20
75036;BME280;64247;51.540;5.854;2022-12-29T07:41:02;99833.19;;;9.65;82.84
75036;BME280;64247;51.540;5.854;2022-12-29T07:43:03;99837.84;;;9.64;82.27
75036;BME280;64247;51.540;5.854;2022-12-29T07:45:11;99837.13;;;9.68;81.94
75036;BME280;64247;51.540;5.854;2022-12-29T07:47:30;99804.97;;;9.66;80.45
75036;BME280;64247;51.540;5.854;2022-12-29T07:49:31;99851.41;;;9.64;80.66
75036;BME280;64247;51.540;5.854;2022-12-29T07:51:32;99854.44;;;9.63;81.28
75036;BME280;64247;51.540;5.854;2022-12-29T07:53:33;99808.09;;;9.68;80.69
75036;BME280;64247;51.540;5.854;2022-12-29T07:55:34;99786.53;;;9.75;80.34
75036;BME280;64247;51.540;5.854;2022-12-29T07:57:35;99840.06;;;9.82;80.27
75036;BME280;64247;51.540;5.854;2022-12-29T07:59:35;99823.63;;;9.71;80.45
75036;BME280;64247;51.540;5.854;2022-12-29T08:01:36;99756.38;;;9.77;79.92
75036;BME280;64247;51.540;5.854;2022-12-29T08:03:37;99841.53;;;9.76;80.29
75036;BME280;64247;51.540;5.854;2022-12-29T08:05:40;99833.03;;;9.77;80.26
75036;BME280;64247;51.540;5.854;2022-12-29T08:07:44;99822.25;;;9.81;79.49
75036;BME280;64247;51.540;5.854;2022-12-29T08:09:45;99852.06;;;9.81;80.42
75036;BME280;64247;51.540;5.854;2022-12-29T08:11:46;99835.78;;;9.81;80.34
75036;BME280;64247;51.540;5.854;2022-12-29T08:13:47;99839.63;;;9.76;79.83
75036;BME280;64247;51.540;5.854;2022-12-29T08:15:48;99846.94;;;9.76;80.28
75036;BME280;64247;51.540;5.854;2022-12-29T08:17:49;99822.19;;;9.77;80.79
75036;BME280;64247;51.540;5.854;2022-12-29T08:19:50;99823.47;;;9.84;79.03
75036;BME280;64247;51.540;5.854;2022-12-29T08:21:50;99856.19;;;9.94;80.14
75036;BME280;64247;51.540;5.854;2022-12-29T08:23:53;99863.19;;;9.95;78.86
75036;BME280;64247;51.540;5.854;2022-12-29T08:26:02;99853.16;;;10.00;78.93
75036;BME280;64247;51.540;5.854;2022-12-29T08:28:05;99861.38;;;10.03;78.13
75036;BME280;64247;51.540;5.854;2022-12-29T08:30:06;99866.06;;;10.06;78.77
75036;BME280;64247;51.540;5.854;2022-12-29T08:32:08;99871.91;;;10.08;77.29
75036;BME280;64247;51.540;5.854;2022-12-29T08:34:09;99867.72;;;10.11;77.97
75036;BME280;64247;51.540;5.854;2022-12-29T08:36:10;99875.03;;;10.10;76.70
75036;BME280;64247;51.540;5.854;2022-12-29T08:38:11;99854.09;;;10.07;75.81
75036;BME280;64247;51.540;5.854;2022-12-29T08:40:12;99873.84;;;10.08;76.15
75036;BME280;64247;51.540;5.854;2022-12-29T08:42:15;99873.53;;;10.13;75.96
75036;BME280;64247;51.540;5.854;2022-12-29T08:44:16;99873.91;;;10.11;77.40
75036;BME280;64247;51.540;5.854;2022-12-29T08:46:17;99883.91;;;10.07;75.86
75036;BME280;64247;51.540;5.854;2022-12-29T08:48:18;99875.34;;;10.05;77.16
75036;BME280;64247;51.540;5.854;2022-12-29T08:50:22;99870.75;;;10.09;76.38
75036;BME280;64247;51.540;5.854;2022-12-29T08:52:23;99866.13;;;10.10;77.20
75036;BME280;64247;51.540;5.854;2022-12-29T08:54:24;99871.13;;;10.08;77.00
75036;BME280;64247;51.540;5.854;2022-12-29T08:56:25;99881.91;;;10.04;76.62
75036;BME280;64247;51.540;5.854;2022-12-29T08:58:30;99881.53;;;10.06;77.82
75036;BME280;64247;51.540;5.854;2022-12-29T09:00:31;99884.63;;;10.04;76.09
75036;BME280;64247;51.540;5.854;2022-12-29T09:02:32;99877.03;;;10.13;76.84
75036;BME280;64247;51.540;5.854;2022-12-29T09:04:33;99879.81;;;10.17;75.72
75036;BME280;64247;51.540;5.854;2022-12-29T09:06:34;99887.22;;;10.20;75.90
75036;BME280;64247;51.540;5.854;2022-12-29T09:08:36;99886.56;;;10.27;75.28
75036;BME280;64247;51.540;5.854;2022-12-29T09:10:37;99888.50;;;10.26;76.23
75036;BME280;64247;51.540;5.854;2022-12-29T09:12:38;99888.50;;;10.26;76.76
75036;BME280;64247;51.540;5.854;2022-12-29T09:14:39;99895.06;;;10.25;78.12
75036;BME280;64247;51.540;5.854;2022-12-29T09:16:40;99891.50;;;10.21;76.74
75036;BME280;64247;51.540;5.854;2022-12-29T09:19:00;99890.66;;;10.17;76.71
75036;BME280;64247;51.540;5.854;2022-12-29T09:21:03;99885.25;;;10.17;76.17
75036;BME280;64247;51.540;5.854;2022-12-29T09:23:05;99872.09;;;10.19;76.36
75036;BME280;64247;51.540;5.854;2022-12-29T09:25:07;99879.94;;;10.24;75.96
75036;BME280;64247;51.540;5.854;2022-12-29T09:27:09;99886.19;;;10.28;77.28
75036;BME280;64247;51.540;5.854;2022-12-29T09:29:10;99902.94;;;10.34;77.35
75036;BME280;64247;51.540;5.854;2022-12-29T09:31:11;99874.69;;;10.35;76.47
75036;BME280;64247;51.540;5.854;2022-12-29T09:33:12;99873.53;;;10.36;76.17
75036;BME280;64247;51.540;5.854;2022-12-29T09:35:15;99883.97;;;10.34;76.82
75036;BME280;64247;51.540;5.854;2022-12-29T09:37:17;99885.25;;;10.40;77.01
75036;BME280;64247;51.540;5.854;2022-12-29T09:39:18;99890.25;;;10.38;78.12
75036;BME280;64247;51.540;5.854;2022-12-29T09:41:36;99841.56;;;10.45;77.03
75036;BME280;64247;51.540;5.854;2022-12-29T09:44:08;99896.53;;;10.42;78.08
75036;BME280;64247;51.540;5.854;2022-12-29T09:46:39;99894.69;;;10.27;78.34
75036;BME280;64247;51.540;5.854;2022-12-29T09:48:47;99897.53;;;10.11;78.76
75036;BME280;64247;51.540;5.854;2022-12-29T09:50:55;99902.41;;;10.02;80.16
75036;BME280;64247;51.540;5.854;2022-12-29T09:53:24;99910.41;;;9.94;80.51
75036;BME280;64247;51.540;5.854;2022-12-29T09:55:44;99913.00;;;9.87;80.18
75036;BME280;64247;51.540;5.854;2022-12-29T09:57:58;99901.34;;;9.87;80.13
75036;BME280;64247;51.540;5.854;2022-12-29T10:00:17;99915.41;;;9.92;80.06
75036;BME280;64247;51.540;5.854;2022-12-29T10:03:11;99917.03;;;9.97;79.47
75036;BME280;64247;51.540;5.854;2022-12-29T10:26:10;99971.50;;;9.33;86.92
75036;BME280;64247;51.540;5.854;2022-12-29T10:28:20;99921.47;;;9.27;87.80
75036;BME280;64247;51.540;5.854;2022-12-29T10:30:23;99989.97;;;9.11;89.24
75036;BME280;64247;51.540;5.854;2022-12-29T10:35:19;99985.13;;;8.69;92.92
75036;BME280;64247;51.540;5.854;2022-12-29T10:37:41;99975.50;;;8.55;94.10
75036;BME280;64247;51.540;5.854;2022-12-29T10:39:51;100005.44;;;8.47;95.86
75036;BME280;64247;51.540;5.854;2022-12-29T10:42:33;100007.91;;;8.39;96.63
75036;BME280;64247;51.540;5.854;2022-12-29T10:44:38;100004.22;;;8.32;97.21
75036;BME280;64247;51.540;5.854;2022-12-29T10:46:41;100023.31;;;8.23;98.72
75036;BME280;64247;51.540;5.854;2022-12-29T10:48:44;100019.28;;;8.17;99.56
75036;BME280;64247;51.540;5.854;2022-12-29T10:50:48;100015.25;;;8.11;100.00
75036;BME280;64247;51.540;5.854;2022-12-29T10:52:52;100020.31;;;8.12;100.00
75036;BME280;64247;51.540;5.854;2022-12-29T10:55:17;100034.59;;;8.13;100.00
75036;BME280;64247;51.540;5.854;2022-12-29T10:57:46;100036.63;;;8.16;100.00
75036;BME280;64247;51.540;5.854;2022-12-29T10:59:50;100044.41;;;8.17;100.00
75036;BME280;64247;51.540;5.854;2022-12-29T11:05:37;100035.31;;;8.38;99.27
75036;BME280;64247;51.540;5.854;2022-12-29T11:07:50;100033.13;;;8.44;99.05
75036;BME280;64247;51.540;5.854;2022-12-29T11:09:54;100052.31;;;8.38;99.57
75036;BME280;64247;51.540;5.854;2022-12-29T11:11:55;100042.53;;;8.34;98.83
75036;BME280;64247;51.540;5.854;2022-12-29T11:14:02;100040.63;;;8.34;99.93
75036;BME280;64247;51.540;5.854;2022-12-29T11:16:32;100066.22;;;8.24;100.00
75036;BME280;64247;51.540;5.854;2022-12-29T11:18:37;100057.50;;;8.15;100.00
75036;BME280;64247;51.540;5.854;2022-12-29T11:20:41;100063.56;;;8.12;100.00
75036;BME280;64247;51.540;5.854;2022-12-29T11:22:44;100062.81;;;8.12;100.00
75036;BME280;64247;51.540;5.854;2022-12-29T11:24:47;100053.78;;;8.07;100.00
75036;BME280;64247;51.540;5.854;2022-12-29T11:26:55;100077.44;;;8.11;100.00
75036;BME280;64247;51.540;5.854;2022-12-29T11:29:29;100070.91;;;8.12;100.00
75036;BME280;64247;51.540;5.854;2022-12-29T11:31:47;100071.31;;;8.14;100.00
75036;BME280;64247;51.540;5.854;2022-12-29T11:33:50;100071.09;;;8.19;100.00
75036;BME280;64247;51.540;5.854;2022-12-29T11:35:50;100047.66;;;8.23;100.00
75036;BME280;64247;51.540;5.854;2022-12-29T11:37:58;100063.38;;;8.33;99.95
75036;BME280;64247;51.540;5.854;2022-12-29T11:40:05;100080.66;;;8.57;99.71
75036;BME280;64247;51.540;5.854;2022-12-29T11:42:34;100082.09;;;8.67;98.45
75036;BME280;64247;51.540;5.854;2022-12-29T11:44:42;100060.97;;;8.89;97.23
75036;BME280;64247;51.540;5.854;2022-12-29T11:46:49;100060.38;;;9.11;95.20
75036;BME280;64247;51.540;5.854;2022-12-29T11:48:52;100059.50;;;9.07;94.48
75036;BME280;64247;51.540;5.854;2022-12-29T11:50:55;100075.56;;;9.16;93.41
75036;BME280;64247;51.540;5.854;2022-12-29T11:53:13;100050.94;;;9.21;92.36
75036;BME280;64247;51.540;5.854;2022-12-29T11:55:26;100079.41;;;9.31;91.79
75036;BME280;64247;51.540;5.854;2022-12-29T11:57:32;100086.81;;;9.50;90.69
75036;BME280;64247;51.540;5.854;2022-12-29T11:59:40;100073.16;;;9.62;90.61
75036;BME280;64247;51.540;5.854;2022-12-29T12:04:56;100082.44;;;9.81;90.10
75036;BME280;64247;51.540;5.854;2022-12-29T12:07:41;100066.94;;;9.97;87.55
75036;BME280;64247;51.540;5.854;2022-12-29T12:09:54;100095.53;;;9.95;88.07
75036;BME280;64247;51.540;5.854;2022-12-29T12:12:00;100090.25;;;10.02;87.43
75036;BME280;64247;51.540;5.854;2022-12-29T12:14:19;100094.41;;;10.16;86.84
75036;BME280;64247;51.540;5.854;2022-12-29T12:17:12;100088.13;;;10.31;87.22
75036;BME280;64247;51.540;5.854;2022-12-29T12:25:43;100089.41;;;10.18;84.22
75036;BME280;64247;51.540;5.854;2022-12-29T12:28:23;100095.66;;;10.18;83.09
75036;BME280;64247;51.540;5.854;2022-12-29T12:30:40;100102.13;;;10.13;84.99